Time;durP1;ratioP1;P1;durP2;ratioP2;P2;SDS_P1;SDS_P2;PMS_P1;PMS_P2;Temp;Humidity;BMP_temperature;BMP_pressure;BME280_temperature;BME280_humidity;BME280_pressure;Samples;Min_cycle;Max_cycle;Signal;HPM_P1;HPM_P2
2023/04/27 00:02:00;;;;;;;2.58;2.38;;;12.10;99.90;;;;;;5002013;28;20228;-71
2023/04/27 00:04:28;;;;;;;2.90;2.17;;;12.10;99.90;;;;;;4981088;28;20815;-71
2023/04/27 00:06:56;;;;;;;2.42;2.22;;;12.00;99.90;;;;;;5000548;28;20200;-71
2023/04/27 00:09:23;;;;;;;2.58;2.38;;;12.00;99.90;;;;;;4999915;28;20292;-71
2023/04/27 00:11:50;;;;;;;2.70;2.50;;;11.90;99.90;;;;;;4982671;28;20208;-71
2023/04/27 00:14:17;;;;;;;2.60;2.40;;;11.90;99.90;;;;;;5001452;28;20295;-71
2023/04/27 00:16:45;;;;;;;2.53;2.33;;;11.90;99.90;;;;;;5000018;28;20243;-71
2023/04/27 00:19:12;;;;;;;3.15;2.95;;;11.80;99.90;;;;;;4998508;28;20209;-71
2023/04/27 00:21:39;;;;;;;2.55;2.35;;;11.80;99.90;;;;;;5003046;28;20218;-71
2023/04/27 00:24:08;;;;;;;2.63;2.42;;;11.70;99.90;;;;;;4984753;28;20268;-71
2023/04/27 00:26:35;;;;;;;2.65;2.45;;;11.70;99.90;;;;;;4998474;28;20275;-71
2023/04/27 00:29:02;;;;;;;2.60;2.40;;;11.60;99.90;;;;;;5000378;28;20791;-71
2023/04/27 00:31:29;;;;;;;2.47;2.28;;;11.60;99.90;;;;;;5001602;28;20283;-71
2023/04/27 00:33:57;;;;;;;2.25;1.90;;;11.50;99.90;;;;;;5002397;28;20303;-71
2023/04/27 00:36:24;;;;;;;2.22;2.10;;;11.50;99.90;;;;;;4984445;28;20288;-70
2023/04/27 00:38:50;;;;;;;2.80;2.60;;;11.50;99.90;;;;;;4997428;28;20650;-70
2023/04/27 00:41:19;;;;;;;2.28;2.10;;;11.50;99.90;;;;;;4999636;28;20236;-70
2023/04/27 00:43:46;;;;;;;2.58;2.38;;;11.50;99.90;;;;;;4999304;28;20311;-70
2023/04/27 00:46:14;;;;;;;2.70;2.50;;;11.50;99.90;;;;;;4998277;28;20286;-70
2023/04/27 00:48:41;;;;;;;2.47;2.28;;;11.50;99.90;;;;;;5002282;28;20213;-71
2023/04/27 00:51:09;;;;;;;2.70;2.50;;;11.50;99.90;;;;;;5006276;28;20224;-69
2023/04/27 00:53:37;;;;;;;2.28;2.17;;;11.50;99.90;;;;;;4983706;28;20303;-70
2023/04/27 00:56:04;;;;;;;2.88;2.67;;;11.40;99.90;;;;;;4998880;28;20300;-70
2023/04/27 00:58:33;;;;;;;3.08;2.80;;;11.40;99.90;;;;;;4998776;28;20328;-69
2023/04/27 01:01:00;;;;;;;2.63;2.42;;;11.40;99.90;;;;;;5000844;28;20216;-70
2023/04/27 01:03:28;;;;;;;2.42;2.30;;;11.30;99.90;;;;;;4995484;28;20271;-69
2023/04/27 01:05:55;;;;;;;3.30;3.00;;;11.30;99.90;;;;;;4983465;28;20276;-70
2023/04/27 01:08:23;;;;;;;3.35;2.55;;;11.30;99.90;;;;;;4985393;28;20754;-70
2023/04/27 01:10:50;;;;;;;2.58;2.38;;;11.20;99.90;;;;;;4999448;28;20212;-70
2023/04/27 01:13:17;;;;;;;2.80;2.60;;;11.10;99.90;;;;;;4998507;28;20228;-71
2023/04/27 01:15:46;;;;;;;3.38;2.65;;;11.10;99.90;;;;;;4998616;28;20204;-71
2023/04/27 01:18:13;;;;;;;2.60;2.40;;;10.90;99.90;;;;;;5000332;28;20279;-71
2023/04/27 01:20:41;;;;;;;3.08;2.67;;;10.90;99.90;;;;;;4981962;28;20219;-70
2023/04/27 01:23:08;;;;;;;2.60;2.40;;;10.80;99.90;;;;;;5001030;28;20231;-71
2023/04/27 01:25:36;;;;;;;2.13;2.03;;;10.90;99.90;;;;;;4999828;28;20267;-71
2023/04/27 01:28:04;;;;;;;2.13;2.03;;;10.90;99.90;;;;;;4999424;28;20291;-71
2023/04/27 01:30:31;;;;;;;2.50;2.30;;;10.80;99.90;;;;;;4999355;28;20204;-71
2023/04/27 01:32:58;;;;;;;2.78;2.58;;;10.80;99.90;;;;;;4999855;28;20220;-71
2023/04/27 01:35:25;;;;;;;2.15;2.03;;;10.90;99.90;;;;;;4998084;28;20259;-70
2023/04/27 01:37:52;;;;;;;2.42;2.20;;;10.90;99.90;;;;;;5001085;28;20578;-70
2023/04/27 01:40:20;;;;;;;2.38;2.17;;;10.90;99.90;;;;;;4999108;28;20200;-71
2023/04/27 01:42:48;;;;;;;2.13;2.03;;;11.00;99.90;;;;;;4969538;28;20220;-71
2023/04/27 01:45:15;;;;;;;2.05;1.95;;;10.90;99.90;;;;;;4979610;28;20291;-71
2023/04/27 01:47:42;;;;;;;1.92;1.83;;;10.90;99.90;;;;;;4996811;28;20301;-70
2023/04/27 01:50:10;;;;;;;2.58;2.38;;;10.90;99.90;;;;;;4977213;28;20236;-71
2023/04/27 01:52:37;;;;;;;2.05;1.90;;;10.90;99.90;;;;;;4981715;28;20311;-71
2023/04/27 01:55:05;;;;;;;2.38;2.25;;;10.90;99.90;;;;;;4994050;28;20232;-70
2023/04/27 01:57:32;;;;;;;2.30;2.20;;;10.80;99.90;;;;;;4998526;28;20278;-71
2023/04/27 02:00:01;;;;;;;2.10;2.00;;;10.80;99.90;;;;;;4997207;28;20295;-71
2023/04/27 02:02:28;;;;;;;2.70;2.50;;;10.80;99.90;;;;;;5000306;28;20252;-71
2023/04/27 02:04:55;;;;;;;2.50;2.30;;;10.70;99.90;;;;;;4987707;28;20223;-71
2023/04/27 02:07:22;;;;;;;2.30;2.20;;;10.70;99.90;;;;;;4999161;28;20227;-71
2023/04/27 02:09:49;;;;;;;2.63;2.42;;;10.70;99.90;;;;;;4996815;28;20296;-71
2023/04/27 02:12:16;;;;;;;2.45;2.30;;;10.70;99.90;;;;;;4995874;28;20256;-71
2023/04/27 02:14:43;;;;;;;2.20;2.08;;;10.70;99.90;;;;;;5002017;28;20283;-71
2023/04/27 02:17:11;;;;;;;2.60;2.40;;;10.70;99.90;;;;;;4996763;28;20721;-71
2023/04/27 02:19:39;;;;;;;2.15;2.05;;;10.70;99.90;;;;;;4997770;28;20282;-71
2023/04/27 02:22:06;;;;;;;2.63;2.42;;;10.70;99.90;;;;;;4999113;28;20224;-70
2023/04/27 02:24:35;;;;;;;2.33;2.22;;;10.70;99.90;;;;;;4998878;28;20276;-71
2023/04/27 02:27:02;;;;;;;2.30;2.05;;;10.80;99.90;;;;;;4998992;28;20295;-71
2023/04/27 02:29:30;;;;;;;2.22;2.03;;;10.80;99.90;;;;;;4981910;28;20204;-71
2023/04/27 02:31:58;;;;;;;2.40;2.20;;;10.80;99.90;;;;;;5000460;28;20690;-71
2023/04/27 02:34:26;;;;;;;2.53;2.33;;;10.70;99.90;;;;;;4994807;28;20235;-71
2023/04/27 02:36:53;;;;;;;2.35;2.25;;;10.60;99.90;;;;;;4998134;28;20227;-71
2023/04/27 02:39:20;;;;;;;2.58;2.38;;;10.60;99.90;;;;;;4999793;28;20245;-71
2023/04/27 02:41:47;;;;;;;2.65;2.45;;;10.50;99.90;;;;;;5001750;28;20283;-71
2023/04/27 02:44:14;;;;;;;2.25;2.05;;;10.60;99.90;;;;;;5001845;28;20672;-71
2023/04/27 02:46:41;;;;;;;2.38;2.22;;;10.50;99.90;;;;;;4999976;28;20232;-71
2023/04/27 02:49:09;;;;;;;2.30;2.20;;;10.50;99.90;;;;;;4997539;28;20236;-72
2023/04/27 02:51:37;;;;;;;1.90;1.80;;;10.50;99.90;;;;;;4983198;28;20267;-71
2023/04/27 02:54:05;;;;;;;2.72;2.40;;;10.50;99.90;;;;;;4997444;28;20738;-71
2023/04/27 02:56:32;;;;;;;2.72;2.60;;;10.40;99.90;;;;;;4980710;28;20202;-71
2023/04/27 02:58:59;;;;;;;2.63;2.42;;;10.40;99.90;;;;;;4980413;28;20322;-71
2023/04/27 03:01:26;;;;;;;2.70;2.50;;;10.30;99.90;;;;;;5000171;28;20239;-71
2023/04/27 03:03:53;;;;;;;2.50;2.30;;;10.30;99.90;;;;;;4995075;28;20233;-71
2023/04/27 03:06:20;;;;;;;2.40;2.30;;;10.30;99.90;;;;;;4996172;28;20291;-71
2023/04/27 03:08:48;;;;;;;2.55;2.35;;;10.40;99.90;;;;;;5000894;28;20288;-72
2023/04/27 03:11:15;;;;;;;2.30;2.20;;;10.30;99.90;;;;;;4998881;28;20295;-71
2023/04/27 03:13:42;;;;;;;2.55;2.40;;;10.30;99.90;;;;;;4996848;28;20279;-71
2023/04/27 03:16:10;;;;;;;2.15;2.05;;;10.30;99.90;;;;;;4997881;28;20244;-72
2023/04/27 03:18:38;;;;;;;2.25;2.15;;;10.30;99.90;;;;;;4991031;28;20208;-71
2023/04/27 03:21:07;;;;;;;2.67;2.47;;;10.30;99.90;;;;;;4998077;28;20208;-72
2023/04/27 03:23:34;;;;;;;2.58;2.38;;;10.30;99.90;;;;;;4994105;28;20220;-72
2023/04/27 03:26:07;;;;;;;2.63;2.42;;;10.30;99.90;;;;;;4995650;28;20661;-71
2023/04/27 03:28:34;;;;;;;3.88;2.40;;;10.30;99.90;;;;;;5000829;28;20246;-72
2023/04/27 03:31:04;;;;;;;2.83;2.63;;;10.20;99.90;;;;;;5005914;28;20317;-72
2023/04/27 03:33:31;;;;;;;2.22;2.13;;;10.20;99.90;;;;;;5001229;28;20234;-71
2023/04/27 03:35:58;;;;;;;2.40;2.30;;;10.10;99.90;;;;;;4998322;28;20212;-71
2023/04/27 03:38:26;;;;;;;2.50;2.40;;;10.10;99.90;;;;;;4994609;28;20291;-71
2023/04/27 03:40:54;;;;;;;2.50;2.30;;;10.00;99.90;;;;;;4996003;28;20299;-71
2023/04/27 03:43:23;;;;;;;2.65;2.45;;;10.00;99.90;;;;;;5004032;28;20224;-72
2023/04/27 03:45:50;;;;;;;2.83;2.63;;;10.10;99.90;;;;;;4992049;28;20674;-71
2023/04/27 03:48:18;;;;;;;2.22;2.03;;;10.20;99.90;;;;;;4995739;28;20386;-71
2023/04/27 03:50:45;;;;;;;2.53;2.33;;;10.20;99.90;;;;;;4993570;28;20220;-71
2023/04/27 03:53:13;;;;;;;2.17;2.08;;;10.30;99.90;;;;;;4995580;28;20251;-71
2023/04/27 03:55:41;;;;;;;2.80;2.50;;;10.30;99.90;;;;;;4982286;28;20729;-71
2023/04/27 03:58:09;;;;;;;2.15;1.95;;;10.30;99.90;;;;;;5002009;28;20205;-71
2023/04/27 04:00:38;;;;;;;2.00;1.90;;;10.20;99.90;;;;;;4986636;28;20207;-71
2023/04/27 04:03:06;;;;;;;2.15;2.05;;;10.20;99.90;;;;;;5005512;28;20220;-71
2023/04/27 04:05:34;;;;;;;2.47;2.28;;;10.20;99.90;;;;;;5001108;28;20220;-70
2023/04/27 04:08:01;;;;;;;2.17;2.08;;;10.30;99.90;;;;;;4997930;28;20757;-70
2023/04/27 04:10:28;;;;;;;2.20;2.05;;;10.30;99.90;;;;;;5001457;28;20284;-70
2023/04/27 04:12:55;;;;;;;2.38;2.28;;;10.30;99.90;;;;;;4993937;28;20941;-70
2023/04/27 04:15:22;;;;;;;2.40;2.30;;;10.20;99.90;;;;;;4998819;28;20626;-70
2023/04/27 04:17:50;;;;;;;2.55;2.38;;;10.20;99.90;;;;;;4996659;28;20292;-70
2023/04/27 04:20:17;;;;;;;2.78;2.58;;;10.10;99.90;;;;;;4983645;28;20201;-70
2023/04/27 04:22:44;;;;;;;2.58;2.38;;;10.10;99.90;;;;;;4999192;28;20321;-70
2023/04/27 04:25:11;;;;;;;2.10;2.00;;;10.10;99.90;;;;;;4999354;28;20233;-70
2023/04/27 04:27:38;;;;;;;2.45;2.35;;;10.10;99.90;;;;;;5004667;28;20286;-70
2023/04/27 04:30:07;;;;;;;2.50;2.33;;;10.10;99.90;;;;;;4996382;28;20295;-70
2023/04/27 04:32:36;;;;;;;2.70;1.90;;;10.10;99.90;;;;;;4983872;28;20223;-70
2023/04/27 04:35:05;;;;;;;2.30;2.10;;;10.20;99.90;;;;;;4999403;28;20201;-71
2023/04/27 04:37:35;;;;;;;2.70;2.50;;;10.20;99.90;;;;;;5003237;28;20291;-70
2023/04/27 04:40:07;;;;;;;2.50;2.40;;;10.20;99.90;;;;;;4999530;28;20201;-71
2023/04/27 04:42:35;;;;;;;2.55;2.35;;;10.20;99.90;;;;;;5002196;28;20306;-70
2023/04/27 04:45:03;;;;;;;2.63;2.42;;;10.20;99.90;;;;;;4998002;28;20216;-70
2023/04/27 04:47:32;;;;;;;2.80;2.60;;;10.20;99.90;;;;;;4999839;28;20200;-70
2023/04/27 04:50:00;;;;;;;2.33;2.22;;;10.20;99.90;;;;;;5000842;28;20209;-70
2023/04/27 04:52:28;;;;;;;2.85;2.65;;;10.20;99.90;;;;;;4999858;28;20248;-70
2023/04/27 04:54:55;;;;;;;3.17;2.90;;;10.30;99.90;;;;;;5004184;28;20291;-70
2023/04/27 04:57:22;;;;;;;2.25;2.15;;;10.30;99.90;;;;;;5001332;28;20236;-70
2023/04/27 04:59:49;;;;;;;2.20;2.10;;;10.40;99.90;;;;;;4980601;28;20200;-70
2023/04/27 05:02:16;;;;;;;2.42;2.25;;;10.50;99.90;;;;;;4995843;28;20248;-70
2023/04/27 05:04:44;;;;;;;2.28;2.17;;;10.50;99.90;;;;;;5005372;28;20308;-70
2023/04/27 05:07:11;;;;;;;2.38;2.28;;;10.60;99.90;;;;;;5001649;28;20210;-70
2023/04/27 05:09:40;;;;;;;2.70;2.50;;;10.60;99.90;;;;;;5010603;28;20208;-70
2023/04/27 05:12:07;;;;;;;2.28;2.17;;;10.60;99.90;;;;;;5003432;28;20228;-71
2023/04/27 05:14:34;;;;;;;2.50;2.30;;;10.60;99.90;;;;;;4982896;28;21056;-70
2023/04/27 05:17:02;;;;;;;2.28;2.08;;;10.60;99.90;;;;;;5007451;28;20672;-70
2023/04/27 05:19:29;;;;;;;2.15;2.05;;;10.60;99.90;;;;;;4996515;28;20216;-70
2023/04/27 05:21:57;;;;;;;2.50;2.30;;;10.70;99.90;;;;;;5002541;28;20204;-70
2023/04/27 05:24:25;;;;;;;2.53;2.25;;;11.10;99.90;;;;;;4986114;28;20619;-70
2023/04/27 05:26:54;;;;;;;2.33;2.13;;;11.40;99.90;;;;;;5004819;28;20227;-70
2023/04/27 05:29:21;;;;;;;2.83;2.58;;;11.80;99.90;;;;;;4995605;28;20846;-70
2023/04/27 05:31:48;;;;;;;3.38;2.60;;;12.10;99.90;;;;;;5001468;28;20201;-71
2023/04/27 05:34:15;;;;;;;2.95;2.75;;;12.30;99.90;;;;;;4963909;28;20291;-70
2023/04/27 05:36:42;;;;;;;2.78;2.58;;;12.50;99.90;;;;;;4982305;28;20218;-70
2023/04/27 05:39:10;;;;;;;2.47;2.28;;;12.60;99.90;;;;;;4983648;28;20975;-71
2023/04/27 05:41:37;;;;;;;2.97;2.67;;;12.80;99.90;;;;;;4998759;28;20200;-70
2023/04/27 05:44:06;;;;;;;3.08;2.72;;;13.00;99.90;;;;;;4996349;28;20252;-70
2023/04/27 05:46:33;;;;;;;2.55;2.35;;;13.10;99.90;;;;;;5004136;28;20200;-70
2023/04/27 05:49:00;;;;;;;2.83;2.47;;;13.20;99.90;;;;;;4997761;28;20236;-71
2023/04/27 05:51:28;;;;;;;2.67;2.47;;;13.40;99.90;;;;;;4996913;28;20283;-71
2023/04/27 05:53:55;;;;;;;2.67;2.47;;;13.40;99.90;;;;;;5001629;28;20228;-71
2023/04/27 05:56:22;;;;;;;2.60;2.40;;;13.60;99.90;;;;;;4983291;28;20650;-70
2023/04/27 05:58:49;;;;;;;2.70;2.50;;;13.80;99.90;;;;;;4999993;28;20225;-70
2023/04/27 06:01:17;;;;;;;2.67;2.47;;;13.90;99.90;;;;;;4998859;28;20281;-70
2023/04/27 06:03:44;;;;;;;2.70;2.50;;;14.10;99.90;;;;;;5000580;28;20315;-70
2023/04/27 06:06:12;;;;;;;2.70;2.50;;;14.30;99.90;;;;;;4984840;28;20711;-70
2023/04/27 06:08:39;;;;;;;7.03;3.22;;;14.50;99.90;;;;;;4995047;28;20296;-70
2023/04/27 06:11:06;;;;;;;2.80;2.58;;;14.60;99.90;;;;;;4998920;28;20236;-71
2023/04/27 06:13:33;;;;;;;2.67;2.47;;;14.90;99.90;;;;;;5000267;28;20227;-71
2023/04/27 06:16:00;;;;;;;3.00;2.60;;;15.10;99.90;;;;;;5000110;28;20232;-71
2023/04/27 06:18:28;;;;;;;2.97;2.70;;;15.10;99.90;;;;;;4997816;28;20291;-70
2023/04/27 06:21:00;;;;;;;5.10;2.78;;;15.00;99.90;;;;;;4998230;28;20200;-71
2023/04/27 06:23:27;;;;;;;2.70;2.50;;;14.80;99.90;;;;;;4979384;28;20216;-71
2023/04/27 06:25:55;;;;;;;2.80;2.60;;;14.40;99.90;;;;;;4982014;28;20217;-71
2023/04/27 06:28:22;;;;;;;3.13;2.63;;;14.20;99.90;;;;;;5000462;28;20236;-71
2023/04/27 06:30:49;;;;;;;3.15;2.83;;;14.10;99.90;;;;;;4998130;28;20855;-71
2023/04/27 06:33:16;;;;;;;2.70;2.50;;;14.00;99.90;;;;;;4998406;28;20216;-71
2023/04/27 06:35:45;;;;;;;3.22;2.50;;;13.80;99.90;;;;;;4998475;28;20616;-72
2023/04/27 06:38:13;;;;;;;3.72;2.75;;;13.80;99.90;;;;;;4998028;28;20884;-71
2023/04/27 06:40:40;;;;;;;3.70;2.65;;;13.80;99.90;;;;;;4995244;28;20204;-71
2023/04/27 06:43:07;;;;;;;2.78;2.58;;;14.10;99.90;;;;;;4994016;28;20212;-71
2023/04/27 06:45:34;;;;;;;2.97;2.40;;;14.50;99.90;;;;;;4977215;28;20683;-71
2023/04/27 06:48:02;;;;;;;2.83;2.63;;;15.00;99.90;;;;;;4999281;28;20259;-71
2023/04/27 06:50:29;;;;;;;2.70;2.50;;;15.30;99.90;;;;;;4993557;28;20223;-71
2023/04/27 06:52:58;;;;;;;2.90;2.63;;;15.40;99.90;;;;;;4992295;28;20305;-71
2023/04/27 06:55:25;;;;;;;3.08;2.38;;;15.40;99.90;;;;;;4975003;28;20228;-71
2023/04/27 06:57:52;;;;;;;2.67;2.47;;;15.50;99.90;;;;;;4995940;28;20299;-72
2023/04/27 07:00:20;;;;;;;4.05;2.42;;;15.60;99.90;;;;;;4992103;28;20717;-71
2023/04/27 07:02:47;;;;;;;2.88;2.40;;;15.50;99.90;;;;;;4978135;28;20821;-71
2023/04/27 07:05:14;;;;;;;6.13;2.63;;;15.60;99.90;;;;;;4998294;28;20700;-71
2023/04/27 07:07:41;;;;;;;2.70;2.10;;;15.70;99.90;;;;;;4996188;28;20715;-71
2023/04/27 07:10:11;;;;;;;2.70;2.38;;;15.70;99.90;;;;;;4994385;28;20767;-71
2023/04/27 07:12:38;;;;;;;3.20;2.90;;;15.70;99.90;;;;;;4990176;28;20331;-71
2023/04/27 07:15:07;;;;;;;3.38;2.85;;;15.70;99.90;;;;;;4981535;28;20223;-71
2023/04/27 07:17:34;;;;;;;4.45;2.90;;;15.60;99.90;;;;;;4996445;28;20201;-72
2023/04/27 07:20:02;;;;;;;3.40;2.47;;;15.50;99.90;;;;;;4996961;28;20292;-70
2023/04/27 07:22:30;;;;;;;3.20;2.90;;;15.60;99.90;;;;;;4989269;28;20328;-73
2023/04/27 07:24:57;;;;;;;4.78;3.25;;;15.80;99.90;;;;;;4992075;28;20321;-71
2023/04/27 07:27:26;;;;;;;3.45;3.13;;;15.70;99.90;;;;;;4990602;28;20299;-71
2023/04/27 07:29:53;;;;;;;3.00;2.70;;;15.90;99.90;;;;;;4990748;28;20204;-72
2023/04/27 07:32:21;;;;;;;3.08;2.78;;;16.00;99.90;;;;;;4993732;28;20228;-70
2023/04/27 07:34:49;;;;;;;2.85;2.60;;;16.10;99.90;;;;;;4996226;28;20200;-70
2023/04/27 07:37:17;;;;;;;2.63;2.42;;;16.20;99.90;;;;;;4993516;28;20263;-70
2023/04/27 07:39:43;;;;;;;3.35;3.05;;;16.30;99.90;;;;;;4988878;28;20292;-70
2023/04/27 07:42:11;;;;;;;2.55;2.35;;;16.60;99.90;;;;;;4994178;28;20347;-70
2023/04/27 07:44:39;;;;;;;2.75;2.55;;;16.80;99.90;;;;;;4999535;28;20235;-69
2023/04/27 07:47:06;;;;;;;2.63;2.42;;;17.20;99.90;;;;;;4993744;28;20244;-70
2023/04/27 07:49:33;;;;;;;2.80;2.55;;;17.30;99.90;;;;;;4993898;28;20279;-70
2023/04/27 07:52:01;;;;;;;2.58;2.38;;;17.40;99.90;;;;;;4994035;28;20235;-70
2023/04/27 07:54:28;;;;;;;3.30;2.25;;;17.60;99.90;;;;;;4973779;28;20196;-70
2023/04/27 07:56:56;;;;;;;2.70;2.50;;;17.80;99.90;;;;;;4993279;28;20220;-70
2023/04/27 07:59:23;;;;;;;2.70;2.45;;;18.20;99.90;;;;;;4998046;28;20200;-70
2023/04/27 08:01:51;;;;;;;3.05;2.30;;;18.30;99.90;;;;;;4999333;28;20231;-70
2023/04/27 08:04:18;;;;;;;2.63;2.30;;;17.80;99.90;;;;;;4996042;28;20239;-70
2023/04/27 08:06:46;;;;;;;2.38;2.10;;;17.30;99.90;;;;;;4993991;28;20223;-70
2023/04/27 08:09:13;;;;;;;3.15;2.40;;;17.30;99.90;;;;;;4999074;28;20237;-70
2023/04/27 08:11:40;;;;;;;3.05;2.47;;;17.80;99.90;;;;;;4996029;28;20288;-70
2023/04/27 08:14:12;;;;;;;2.65;2.25;;;17.90;99.90;;;;;;4993986;28;20317;-70
2023/04/27 08:16:40;;;;;;;2.90;2.35;;;17.90;99.90;;;;;;4994759;28;20201;-70
2023/04/27 08:19:09;;;;;;;4.90;2.30;;;17.80;99.90;;;;;;4999431;28;20291;-70
2023/04/27 08:21:36;;;;;;;2.50;2.30;;;17.50;99.90;;;;;;4997394;28;20201;-70
2023/04/27 08:24:04;;;;;;;3.13;2.60;;;17.10;99.90;;;;;;4995691;28;20232;-70
2023/04/27 08:26:32;;;;;;;3.90;2.47;;;17.10;99.90;;;;;;4997397;28;20247;-70
2023/04/27 08:28:59;;;;;;;3.97;2.60;;;17.20;99.90;;;;;;4979987;28;20200;-70
2023/04/27 08:31:26;;;;;;;2.47;2.22;;;17.30;99.90;;;;;;4977872;28;20201;-70
2023/04/27 08:33:54;;;;;;;2.65;2.33;;;17.30;99.90;;;;;;4996148;28;20252;-70
2023/04/27 08:36:25;;;;;;;4.93;2.47;;;17.50;99.90;;;;;;4995228;28;20227;-70
2023/04/27 08:38:52;;;;;;;4.28;2.22;;;17.70;99.90;;;;;;4992307;28;20670;-70
2023/04/27 08:41:20;;;;;;;2.72;2.50;;;17.60;99.90;;;;;;4966105;28;20200;-70
2023/04/27 08:43:48;;;;;;;2.47;1.95;;;17.80;99.90;;;;;;4995983;28;20220;-70
2023/04/27 08:46:19;;;;;;;2.63;2.42;;;17.70;99.90;;;;;;4995511;28;20241;-70
2023/04/27 08:48:47;;;;;;;2.75;2.30;;;17.50;99.90;;;;;;4994959;28;20474;-70
2023/04/27 08:51:16;;;;;;;3.13;2.60;;;17.30;99.90;;;;;;4995595;28;20243;-70
2023/04/27 08:53:50;;;;;;;2.50;2.30;;;17.90;99.90;;;;;;4997342;28;20250;-70
2023/04/27 08:56:17;;;;;;;3.50;2.50;;;17.80;99.90;;;;;;4998043;28;20197;-70
2023/04/27 08:58:45;;;;;;;2.38;2.15;;;17.50;99.90;;;;;;5000431;28;20216;-70
2023/04/27 09:01:12;;;;;;;2.35;2.17;;;17.60;99.90;;;;;;4996604;28;20569;-70
2023/04/27 09:03:39;;;;;;;2.92;2.65;;;18.00;99.90;;;;;;4994299;28;20257;-70
2023/04/27 09:06:08;;;;;;;3.10;2.80;;;18.30;99.90;;;;;;4996928;28;20220;-70
2023/04/27 09:08:42;;;;;;;3.05;2.75;;;18.50;99.90;;;;;;4996697;28;20291;-70
2023/04/27 09:11:11;;;;;;;5.28;2.92;;;18.70;99.90;;;;;;4999986;28;20645;-70
2023/04/27 09:13:39;;;;;;;3.17;2.80;;;18.60;99.90;;;;;;4998083;28;20408;-70
2023/04/27 09:16:07;;;;;;;2.97;2.78;;;18.60;99.90;;;;;;4980146;28;20220;-70
2023/04/27 09:18:36;;;;;;;4.13;2.60;;;18.70;99.90;;;;;;4997498;28;20578;-70
2023/04/27 09:21:05;;;;;;;2.55;2.35;;;18.80;99.90;;;;;;4997419;28;20222;-71
2023/04/27 09:23:33;;;;;;;3.55;2.88;;;19.10;99.90;;;;;;4994413;28;20640;-70
2023/04/27 09:26:02;;;;;;;3.05;2.75;;;19.10;99.90;;;;;;4995233;28;20292;-70
2023/04/27 09:28:33;;;;;;;4.97;2.50;;;19.10;99.90;;;;;;4997348;28;20232;-70
2023/04/27 09:31:03;;;;;;;4.07;2.50;;;19.20;99.90;;;;;;4997033;28;20204;-70
2023/04/27 09:33:32;;;;;;;2.95;2.75;;;19.10;99.90;;;;;;4992784;28;20760;-70
2023/04/27 09:36:01;;;;;;;3.13;2.83;;;19.10;99.90;;;;;;4993908;28;20915;-70
2023/04/27 09:38:29;;;;;;;2.92;2.63;;;19.20;99.90;;;;;;4982394;28;20196;-70
2023/04/27 09:40:56;;;;;;;2.83;2.60;;;19.40;99.90;;;;;;4976477;28;20709;-71
2023/04/27 09:43:26;;;;;;;4.10;3.50;;;19.60;99.90;;;;;;4995967;28;20226;-71
2023/04/27 09:45:55;;;;;;;4.70;2.67;;;19.60;99.90;;;;;;4998877;28;20224;-71
2023/04/27 09:48:24;;;;;;;3.15;2.80;;;19.70;99.90;;;;;;4999217;28;20283;-71
2023/04/27 09:50:52;;;;;;;3.70;2.80;;;19.90;99.90;;;;;;4981004;28;20207;-71
2023/04/27 09:53:23;;;;;;;4.85;2.65;;;20.10;99.90;;;;;;4996397;28;20244;-71
2023/04/27 09:56:06;;;;;;;3.78;3.38;;;20.10;99.90;;;;;;4996544;28;20315;-72
2023/04/27 09:59:05;;;;;;;3.30;3.00;;;20.20;99.90;;;;;;4995804;28;20212;-72
2023/04/27 10:01:40;;;;;;;3.50;3.10;;;20.00;99.90;;;;;;4993694;28;20196;-71
2023/04/27 10:04:21;;;;;;;4.85;3.22;;;19.90;99.90;;;;;;4993976;28;20203;-72
2023/04/27 10:07:00;;;;;;;5.03;3.40;;;20.10;99.90;;;;;;4994420;28;20299;-72
2023/04/27 10:09:30;;;;;;;3.28;2.92;;;20.20;99.90;;;;;;4994046;28;20258;-72
2023/04/27 10:12:13;;;;;;;5.38;2.72;;;20.20;99.90;;;;;;4994607;28;20212;-72
2023/04/27 10:14:52;;;;;;;3.20;2.90;;;19.90;99.90;;;;;;4994852;28;20697;-71
2023/04/27 10:17:25;;;;;;;4.03;2.97;;;19.70;99.90;;;;;;4995974;28;20286;-72
2023/04/27 10:19:58;;;;;;;3.92;3.20;;;19.80;99.90;;;;;;4994493;28;20203;-71
2023/04/27 10:22:37;;;;;;;2.50;2.30;;;20.00;99.90;;;;;;4999266;28;20223;-73
2023/04/27 10:25:14;;;;;;;3.53;2.50;;;20.30;99.90;;;;;;4990795;28;20214;-72
2023/04/27 10:27:41;;;;;;;3.53;2.00;;;20.50;99.90;;;;;;4990864;28;20227;-71
2023/04/27 10:30:11;;;;;;;2.90;2.08;;;20.40;99.90;;;;;;4993304;28;20204;-71
2023/04/27 10:32:51;;;;;;;4.07;1.92;;;20.50;99.90;;;;;;4995923;28;20229;-72
2023/04/27 10:35:19;;;;;;;2.38;2.00;;;20.60;99.90;;;;;;4993601;28;20203;-73
2023/04/27 10:37:47;;;;;;;2.25;1.88;;;20.50;99.90;;;;;;4995626;28;20197;-71
2023/04/27 10:40:16;;;;;;;2.00;1.80;;;20.70;99.90;;;;;;4997640;28;20937;-72
2023/04/27 10:42:44;;;;;;;3.20;1.77;;;21.10;99.90;;;;;;4993777;28;20741;-72
2023/04/27 10:45:12;;;;;;;2.20;1.95;;;21.10;99.90;;;;;;4996065;28;20300;-72
2023/04/27 10:47:42;;;;;;;2.35;1.63;;;21.00;99.90;;;;;;4977615;28;20224;-72
2023/04/27 10:50:12;;;;;;;3.28;1.58;;;21.00;99.90;;;;;;4994807;28;20284;-72
2023/04/27 10:52:42;;;;;;;3.65;1.95;;;21.00;99.90;;;;;;4976310;28;20631;-72
2023/04/27 10:55:16;;;;;;;2.00;1.90;;;21.10;99.90;;;;;;4991082;28;20301;-72
2023/04/27 10:57:48;;;;;;;3.42;1.83;;;21.30;99.90;;;;;;4994453;28;20232;-72
2023/04/27 11:00:17;;;;;;;2.17;1.60;;;21.40;99.90;;;;;;4995959;28;20200;-72
2023/04/27 11:02:46;;;;;;;2.60;1.70;;;21.50;99.90;;;;;;4996199;28;20228;-72
2023/04/27 11:05:18;;;;;;;3.50;2.03;;;21.50;99.90;;;;;;4981156;28;20208;-72
2023/04/27 11:07:46;;;;;;;1.90;1.70;;;21.80;99.90;;;;;;4993231;28;20323;-72
2023/04/27 11:10:16;;;;;;;1.33;1.23;;;21.80;99.90;;;;;;4992795;28;20212;-72
2023/04/27 11:12:43;;;;;;;1.40;1.30;;;21.90;99.90;;;;;;4993540;28;20756;-72
2023/04/27 11:15:11;;;;;;;1.38;1.27;;;21.90;99.90;;;;;;4994973;28;20299;-72
2023/04/27 11:17:38;;;;;;;1.77;1.60;;;21.90;99.90;;;;;;4994678;28;20222;-72
2023/04/27 11:20:09;;;;;;;1.75;1.42;;;21.70;99.90;;;;;;4997700;28;20231;-72
2023/04/27 11:22:45;;;;;;;3.25;1.52;;;21.60;99.90;;;;;;4995108;28;20219;-72
2023/04/27 11:25:12;;;;;;;1.77;1.35;;;21.80;99.90;;;;;;4981533;28;20200;-72
2023/04/27 11:27:40;;;;;;;1.17;1.08;;;21.70;99.90;;;;;;4991538;28;20316;-72
2023/04/27 11:30:20;;;;;;;2.60;1.30;;;21.80;99.90;;;;;;4979006;28;20207;-72
2023/04/27 11:32:47;;;;;;;1.92;1.38;;;21.80;99.90;;;;;;4996015;28;20247;-72
2023/04/27 11:35:17;;;;;;;1.17;1.08;;;21.80;99.90;;;;;;4980790;28;20693;-72
2023/04/27 11:37:46;;;;;;;5.95;1.85;;;21.80;99.90;;;;;;4998735;28;20231;-72
2023/04/27 11:40:14;;;;;;;2.80;1.63;;;21.80;99.90;;;;;;5001762;28;20780;-72
2023/04/27 11:42:45;;;;;;;1.77;1.38;;;21.80;99.90;;;;;;4995562;28;20224;-72
2023/04/27 11:45:13;;;;;;;1.90;1.30;;;21.90;99.90;;;;;;5001644;28;20220;-72
2023/04/27 11:47:46;;;;;;;1.30;1.20;;;22.00;99.90;;;;;;4978454;28;20315;-72
2023/04/27 11:50:13;;;;;;;1.40;1.30;;;21.90;99.90;;;;;;4997425;28;20211;-72
2023/04/27 11:52:41;;;;;;;1.60;1.20;;;21.80;99.90;;;;;;4999011;28;20224;-72
2023/04/27 11:55:14;;;;;;;1.83;1.40;;;21.70;99.90;;;;;;5000884;28;20209;-72
2023/04/27 11:57:42;;;;;;;2.72;1.23;;;21.70;99.90;;;;;;4996654;28;20208;-72
2023/04/27 12:00:12;;;;;;;1.20;1.10;;;21.70;99.90;;;;;;4998655;28;20251;-72
2023/04/27 12:02:40;;;;;;;1.00;1.00;;;21.80;99.90;;;;;;4998887;28;20371;-72
2023/04/27 12:05:08;;;;;;;1.48;1.27;;;22.00;99.90;;;;;;4996803;28;20377;-72
2023/04/27 12:07:35;;;;;;;1.40;1.30;;;22.10;99.90;;;;;;4994224;28;20221;-72
2023/04/27 12:10:04;;;;;;;2.63;1.80;;;22.10;99.90;;;;;;4996545;28;20236;-72
2023/04/27 12:12:32;;;;;;;2.45;1.40;;;22.00;99.90;;;;;;5000383;28;20324;-72
2023/04/27 12:14:59;;;;;;;1.48;1.38;;;21.80;99.90;;;;;;4996458;28;20724;-72
2023/04/27 12:17:26;;;;;;;1.50;1.20;;;21.90;99.90;;;;;;4996268;28;20405;-72
2023/04/27 12:19:53;;;;;;;1.27;1.00;;;21.90;99.90;;;;;;5001025;28;20200;-72
2023/04/27 12:22:20;;;;;;;1.58;1.25;;;21.80;99.90;;;;;;4999971;28;20877;-72
2023/04/27 12:24:47;;;;;;;4.88;1.40;;;21.80;99.90;;;;;;4994822;28;20283;-72
2023/04/27 12:27:16;;;;;;;1.98;1.58;;;21.80;99.90;;;;;;4996972;28;20641;-72
2023/04/27 12:29:43;;;;;;;1.30;1.20;;;21.70;99.90;;;;;;4999916;28;20295;-72
2023/04/27 12:32:10;;;;;;;3.08;1.58;;;21.70;99.90;;;;;;4997570;28;20231;-72
2023/04/27 12:34:38;;;;;;;1.73;1.20;;;21.80;99.90;;;;;;4996283;28;20297;-72
2023/04/27 12:37:05;;;;;;;1.50;1.40;;;21.80;99.90;;;;;;4999315;28;20196;-72
2023/04/27 12:39:33;;;;;;;2.13;1.17;;;21.80;99.90;;;;;;4993483;28;20280;-72
2023/04/27 12:42:01;;;;;;;1.30;1.20;;;21.90;99.90;;;;;;5001176;28;20216;-72
2023/04/27 12:44:30;;;;;;;2.35;1.55;;;21.70;99.90;;;;;;4996900;28;20662;-72
2023/04/27 12:46:57;;;;;;;1.75;1.48;;;21.60;99.90;;;;;;4998750;28;20729;-72
2023/04/27 12:49:24;;;;;;;2.60;1.65;;;21.60;99.90;;;;;;4998003;28;20291;-72
2023/04/27 12:51:52;;;;;;;2.35;1.60;;;21.50;99.70;;;;;;4998605;28;20209;-72
2023/04/27 12:54:20;;;;;;;3.13;1.83;;;21.40;99.20;;;;;;4991400;28;20271;-72